createdAt,value
2019-02-04T00:00:20.119Z,59.20
2019-02-04T00:01:20.078Z,53.90
2019-02-04T00:02:20.071Z,57.60
2019-02-04T00:03:20.064Z,53.90
2019-02-04T00:04:20.058Z,54.10
2019-02-04T00:05:20.067Z,52.60
2019-02-04T00:06:20.026Z,55.50
2019-02-04T00:07:20.022Z,47.80
2019-02-04T00:08:20.009Z,48.50
2019-02-04T00:09:19.999Z,46.70
2019-02-04T00:10:20.013Z,53.80
2019-02-04T00:11:19.983Z,54.10
2019-02-04T00:12:19.968Z,58.80
2019-02-04T00:13:19.954Z,55.70
2019-02-04T00:14:19.949Z,54.30
2019-02-04T00:15:19.958Z,47.00
2019-02-04T00:16:19.934Z,48.30
2019-02-04T00:17:19.917Z,48.90
2019-02-04T00:18:19.903Z,51.30
2019-02-04T00:19:19.897Z,48.40
2019-02-04T00:20:19.909Z,48.60
2019-02-04T00:21:19.882Z,50.40
2019-02-04T00:22:19.861Z,49.40
2019-02-04T00:23:19.852Z,51.70
2019-02-04T00:24:19.839Z,59.10
2019-02-04T00:25:21.570Z,59.80
2019-02-04T00:26:19.819Z,58.30
2019-02-04T00:27:19.807Z,55.50
2019-02-04T00:28:19.797Z,54.40
2019-02-04T00:29:19.794Z,54.40
2019-02-04T00:30:19.804Z,51.20
2019-02-04T00:31:19.801Z,47.70
2019-02-04T00:32:19.756Z,50.20
2019-02-04T00:33:19.753Z,53.50
2019-02-04T00:34:19.732Z,53.00
2019-02-04T00:35:19.755Z,50.30
2019-02-04T00:36:19.717Z,53.90
2019-02-04T00:37:19.700Z,51.10
2019-02-04T00:38:19.692Z,48.60
2019-02-04T00:39:19.679Z,50.70
2019-02-04T00:40:19.689Z,51.20
2019-02-04T00:41:19.652Z,58.10
2019-02-04T00:42:19.643Z,49.90
2019-02-04T00:43:19.631Z,51.30
2019-02-04T00:44:19.622Z,50.60
2019-02-04T00:45:19.635Z,51.30
2019-02-04T00:46:19.610Z,52.60
2019-02-04T00:47:19.590Z,53.00
2019-02-04T00:48:19.576Z,53.20
2019-02-04T00:49:19.567Z,51.50
2019-02-04T00:50:19.587Z,55.10
2019-02-04T00:51:19.555Z,51.50
2019-02-04T00:52:19.535Z,50.60
2019-02-04T00:53:19.526Z,49.00
2019-02-04T00:54:19.562Z,49.60
2019-02-04T00:55:19.656Z,55.10
2019-02-04T00:56:19.494Z,50.50
2019-02-04T00:57:19.483Z,53.90
2019-02-04T00:58:19.466Z,56.50
2019-02-04T00:59:19.462Z,59.50
2019-02-04T01:00:19.449Z,54.80
2019-02-04T01:01:19.459Z,54.50
2019-02-04T01:02:19.431Z,55.50
2019-02-04T01:03:19.419Z,55.90
2019-02-04T01:04:19.408Z,58.30
2019-02-04T01:05:19.397Z,55.70
2019-02-04T01:06:19.415Z,68.30
2019-02-04T01:07:19.372Z,68.60
2019-02-04T01:08:19.364Z,60.50
2019-02-04T01:09:19.353Z,66.30
2019-02-04T01:10:19.344Z,62.20
2019-02-04T01:11:19.356Z,63.40
2019-02-04T01:12:19.316Z,61.50
2019-02-04T01:13:19.312Z,61.90
2019-02-04T01:14:19.303Z,71.00
2019-02-04T01:15:19.284Z,61.90
2019-02-04T01:16:19.311Z,64.00
2019-02-04T01:17:19.271Z,69.40
2019-02-04T01:18:19.252Z,68.00
2019-02-04T01:19:19.245Z,67.20
2019-02-04T01:20:19.248Z,66.60
2019-02-04T01:21:19.255Z,72.30
2019-02-04T01:22:19.206Z,72.20
2019-02-04T01:23:19.198Z,69.20
2019-02-04T01:24:19.187Z,68.40
2019-02-04T01:25:19.182Z,68.70
2019-02-04T01:26:19.190Z,70.50
2019-02-04T01:27:19.154Z,70.10
2019-02-04T01:28:19.148Z,71.80
2019-02-04T01:29:19.136Z,82.40
2019-02-04T01:30:19.123Z,70.00
2019-02-04T01:31:19.138Z,71.40
2019-02-04T01:32:19.103Z,74.40
2019-02-04T01:33:19.091Z,67.20
2019-02-04T01:34:19.082Z,62.10
2019-02-04T01:35:19.073Z,67.60
2019-02-04T01:36:19.098Z,68.90
2019-02-04T01:37:19.057Z,66.90
2019-02-04T01:38:19.044Z,69.70
2019-02-04T01:39:19.047Z,64.00
2019-02-04T01:40:19.028Z,74.50
2019-02-04T01:41:19.044Z,81.50
2019-02-04T01:42:19.000Z,70.90
2019-02-04T01:43:18.996Z,64.90
2019-02-04T01:44:18.975Z,81.00
2019-02-04T01:45:18.964Z,79.50
2019-02-04T01:46:19.081Z,73.30
2019-02-04T01:47:18.949Z,77.90
2019-02-04T01:48:18.936Z,68.60
2019-02-04T01:49:18.938Z,79.80
2019-02-04T01:50:18.917Z,76.30
2019-02-04T01:51:18.928Z,73.00
2019-02-04T01:52:18.904Z,83.00
2019-02-04T01:53:18.882Z,74.70
2019-02-04T01:54:18.877Z,66.50
2019-02-04T01:55:18.873Z,71.50
2019-02-04T01:56:18.881Z,75.50
2019-02-04T01:57:18.842Z,80.20
2019-02-04T01:58:18.828Z,69.00
2019-02-04T01:59:18.819Z,69.50
2019-02-04T02:00:18.815Z,71.70
2019-02-04T02:01:18.826Z,74.20
2019-02-04T02:02:18.786Z,79.70
2019-02-04T02:03:18.775Z,76.00
2019-02-04T02:04:18.765Z,83.00
2019-02-04T02:05:18.769Z,83.10
2019-02-04T02:06:18.775Z,74.80
2019-02-04T02:07:18.754Z,86.50
2019-02-04T02:08:18.726Z,72.40
2019-02-04T02:09:18.716Z,78.10
2019-02-04T02:10:18.704Z,77.80
2019-02-04T02:11:18.718Z,74.10
2019-02-04T02:12:18.683Z,81.50
2019-02-04T02:13:18.667Z,88.70
2019-02-04T02:14:18.665Z,75.20
2019-02-04T02:15:18.651Z,77.20
2019-02-04T02:16:18.786Z,75.50
2019-02-04T02:17:25.859Z,80.30
2019-02-04T02:18:19.614Z,74.80
2019-02-04T02:19:18.610Z,77.10
2019-02-04T02:20:18.596Z,81.50
2019-02-04T02:21:18.595Z,73.70
2019-02-04T02:22:18.604Z,73.10
2019-02-04T02:23:18.565Z,81.10
2019-02-04T02:24:18.564Z,92.20
2019-02-04T02:25:18.546Z,91.00
2019-02-04T02:26:18.531Z,90.40
2019-02-04T02:27:18.547Z,85.50
2019-02-04T02:28:18.512Z,90.60
2019-02-04T02:29:18.508Z,84.90
2019-02-04T02:30:18.502Z,80.00
2019-02-04T02:31:18.479Z,79.00
2019-02-04T02:32:18.509Z,85.90
2019-02-04T02:33:29.132Z,82.30
2019-02-04T02:34:18.448Z,78.30
2019-02-04T02:35:18.437Z,79.90
2019-02-04T02:36:18.428Z,73.10
2019-02-04T02:37:18.444Z,72.20
2019-02-04T02:38:18.409Z,75.70
2019-02-04T02:39:18.397Z,79.80
2019-02-04T02:40:18.383Z,87.90
2019-02-04T02:41:18.375Z,90.20
2019-02-04T02:42:18.394Z,81.90
2019-02-04T02:43:18.354Z,76.90
2019-02-04T02:44:18.349Z,76.70
2019-02-04T02:45:18.336Z,75.60
2019-02-04T02:46:18.321Z,83.90
2019-02-04T02:47:18.339Z,84.30
2019-02-04T02:48:18.306Z,75.60
2019-02-04T02:49:18.296Z,70.20
2019-02-04T02:50:18.281Z,74.50
2019-02-04T02:51:18.267Z,81.90
2019-02-04T02:52:18.286Z,85.20
2019-02-04T02:53:18.247Z,82.30
2019-02-04T02:54:18.241Z,79.50
2019-02-04T02:55:18.228Z,81.50
2019-02-04T02:56:18.219Z,79.10
2019-02-04T02:57:18.230Z,78.60
2019-02-04T02:58:18.196Z,80.00
2019-02-04T02:59:18.183Z,80.10
2019-02-04T03:00:18.175Z,73.80
2019-02-04T03:01:18.164Z,79.90
2019-02-04T03:02:18.179Z,85.10
2019-02-04T03:03:18.154Z,74.60
2019-02-04T03:04:18.134Z,77.20
2019-02-04T03:05:18.123Z,77.90
2019-02-04T03:06:18.114Z,83.30
2019-02-04T03:07:18.124Z,80.80
2019-02-04T03:08:18.095Z,92.80
2019-02-04T03:09:18.082Z,94.60
2019-02-04T03:10:18.070Z,99.30
2019-02-04T03:11:18.058Z,94.60
2019-02-04T03:12:18.071Z,98.60
2019-02-04T03:13:18.040Z,101.80
2019-02-04T03:14:18.034Z,97.30
2019-02-04T03:15:18.020Z,94.90
2019-02-04T03:16:18.155Z,97.10
2019-02-04T03:17:18.029Z,99.80
2019-02-04T03:18:17.983Z,100.50
2019-02-04T03:19:18.016Z,95.60
2019-02-04T03:20:17.965Z,99.90
2019-02-04T03:21:17.951Z,95.90
2019-02-04T03:22:17.989Z,95.20
2019-02-04T03:23:17.940Z,94.70
2019-02-04T03:24:17.922Z,95.40
2019-02-04T03:25:17.913Z,94.10
2019-02-04T03:26:17.901Z,86.40
2019-02-04T03:27:17.889Z,93.70
2019-02-04T03:28:17.910Z,104.70
2019-02-04T03:29:17.870Z,95.10
2019-02-04T03:30:17.875Z,92.90
2019-02-04T03:31:17.849Z,90.10
2019-02-04T03:32:17.840Z,93.20
2019-02-04T03:33:17.856Z,89.90
2019-02-04T03:34:17.818Z,88.50
2019-02-04T03:35:17.803Z,85.30
2019-02-04T03:36:17.805Z,86.00
2019-02-04T03:37:17.788Z,83.40
2019-02-04T03:38:17.801Z,76.60
2019-02-04T03:39:17.764Z,79.70
2019-02-04T03:40:17.756Z,75.90
2019-02-04T03:41:17.741Z,73.90
2019-02-04T03:42:17.730Z,70.30
2019-02-04T03:43:17.745Z,70.20
2019-02-04T03:44:17.707Z,73.70
2019-02-04T03:45:17.699Z,71.40
2019-02-04T03:46:17.687Z,72.50
2019-02-04T03:47:17.678Z,70.60
2019-02-04T03:48:17.692Z,69.90
2019-02-04T03:49:17.659Z,71.80
2019-02-04T03:50:17.652Z,71.90
2019-02-04T03:51:17.637Z,69.10
2019-02-04T03:52:17.624Z,68.40
2019-02-04T03:53:17.635Z,72.30
2019-02-04T03:54:17.604Z,70.40
2019-02-04T03:55:17.592Z,68.50
2019-02-04T03:56:17.660Z,68.50
2019-02-04T03:57:17.572Z,71.00
2019-02-04T03:58:17.594Z,71.90
2019-02-04T03:59:17.551Z,72.30
2019-02-04T04:00:17.541Z,73.30
2019-02-04T04:01:17.527Z,71.50
2019-02-04T04:02:17.520Z,68.90
2019-02-04T04:03:17.537Z,70.50
2019-02-04T04:04:17.502Z,73.40
2019-02-04T04:05:17.483Z,74.80
2019-02-04T04:06:17.478Z,72.80
2019-02-04T04:07:17.470Z,72.60
2019-02-04T04:08:17.483Z,73.70
2019-02-04T04:09:17.443Z,74.20
2019-02-04T04:10:17.433Z,74.80
2019-02-04T04:11:17.428Z,71.80
2019-02-04T04:12:17.414Z,72.80
2019-02-04T04:13:17.428Z,74.70
2019-02-04T04:14:17.391Z,73.80
2019-02-04T04:15:17.385Z,72.80
2019-02-04T04:16:17.366Z,70.80
2019-02-04T04:17:17.359Z,71.80
2019-02-04T04:18:17.375Z,72.90
2019-02-04T04:19:17.340Z,71.10
2019-02-04T04:20:17.327Z,70.60
2019-02-04T04:21:17.315Z,72.30
2019-02-04T04:22:17.308Z,70.90
2019-02-04T04:23:17.322Z,70.20
2019-02-04T04:24:17.287Z,70.60
2019-02-04T04:25:17.267Z,70.00
2019-02-04T04:26:17.268Z,70.00
2019-02-04T04:27:17.259Z,70.70
2019-02-04T04:28:17.283Z,71.50
2019-02-04T04:29:17.233Z,68.50
2019-02-04T04:30:17.228Z,68.10
2019-02-04T04:31:17.213Z,68.20
2019-02-04T04:32:17.202Z,66.90
2019-02-04T04:33:17.193Z,69.90
2019-02-04T04:34:17.209Z,66.50
2019-02-04T04:35:17.168Z,67.30
2019-02-04T04:36:17.161Z,66.00
2019-02-04T04:37:17.153Z,66.10
2019-02-04T04:38:17.139Z,66.00
2019-02-04T04:39:17.151Z,65.50
2019-02-04T04:40:17.120Z,66.30
2019-02-04T04:41:17.109Z,64.20
2019-02-04T04:42:17.096Z,67.80
2019-02-04T04:43:17.083Z,65.50
2019-02-04T04:44:17.099Z,65.50
2019-02-04T04:45:17.081Z,65.10
2019-02-04T04:46:17.097Z,66.00
2019-02-04T04:47:17.046Z,63.20
2019-02-04T04:48:26.344Z,63.50
2019-02-04T04:49:18.044Z,63.50
2019-02-04T04:51:08.062Z,60.50
2019-02-04T04:52:08.046Z,61.10
2019-02-04T04:53:08.027Z,62.20
2019-02-04T04:54:08.047Z,59.00
2019-02-04T04:55:08.009Z,60.60
2019-02-04T04:56:07.994Z,59.80
2019-02-04T04:57:08.091Z,60.10
2019-02-04T04:58:08.019Z,60.80
2019-02-04T04:59:07.998Z,58.30
2019-02-04T05:00:07.954Z,57.90
2019-02-04T05:01:07.947Z,57.00
2019-02-04T05:02:07.931Z,56.40
2019-02-04T05:03:07.926Z,56.60
2019-02-04T05:04:07.938Z,57.40
2019-02-04T05:05:07.899Z,56.30
2019-02-04T05:06:07.895Z,57.70
2019-02-04T05:07:07.887Z,56.10
2019-02-04T05:08:07.868Z,56.70
2019-02-04T05:09:07.887Z,55.60
2019-02-04T05:10:07.848Z,57.00
2019-02-04T05:11:07.835Z,56.40
2019-02-04T05:12:07.829Z,54.90
2019-02-04T05:13:07.820Z,56.70
2019-02-04T05:14:07.850Z,56.60
2019-02-04T05:15:07.797Z,55.60
2019-02-04T05:16:07.790Z,57.10
2019-02-04T05:17:07.770Z,54.50
2019-02-04T05:18:07.767Z,54.90
2019-02-04T05:19:07.785Z,57.10
2019-02-04T05:20:07.740Z,55.20
2019-02-04T05:21:07.732Z,57.10
2019-02-04T05:22:07.719Z,55.00
2019-02-04T05:23:07.712Z,54.30
2019-02-04T05:24:07.719Z,54.90
2019-02-04T05:25:07.687Z,56.90
2019-02-04T05:26:07.678Z,54.70
2019-02-04T05:27:07.666Z,57.60
2019-02-04T05:28:07.654Z,55.60
2019-02-04T05:29:07.670Z,57.20
2019-02-04T05:30:07.635Z,54.80
2019-02-04T05:31:07.823Z,56.60
2019-02-04T05:32:07.611Z,57.90
2019-02-04T05:33:07.604Z,55.60
2019-02-04T05:34:07.631Z,55.50
2019-02-04T05:35:07.581Z,58.90
2019-02-04T05:36:07.576Z,57.10
2019-02-04T05:37:07.558Z,56.10
2019-02-04T05:38:07.546Z,57.50
2019-02-04T05:39:07.539Z,54.40
2019-02-04T05:40:07.553Z,56.70
2019-02-04T05:41:07.519Z,57.70
2019-02-04T05:42:07.511Z,57.80
2019-02-04T05:43:07.496Z,55.10
2019-02-04T05:44:07.483Z,54.90
2019-02-04T05:45:07.495Z,56.10
2019-02-04T05:46:07.464Z,56.00
2019-02-04T05:47:07.450Z,55.20
2019-02-04T05:48:07.446Z,55.90
2019-02-04T05:49:07.431Z,56.70
2019-02-04T05:50:07.446Z,55.20
2019-02-04T05:51:07.414Z,57.70
2019-02-04T05:52:07.398Z,54.80
2019-02-04T05:53:07.397Z,55.70
2019-02-04T05:54:07.388Z,54.30
2019-02-04T05:55:07.399Z,55.30
2019-02-04T05:56:07.354Z,54.50
2019-02-04T05:57:07.347Z,57.20
2019-02-04T05:58:07.337Z,54.70
2019-02-04T05:59:07.327Z,56.10
2019-02-04T06:00:07.343Z,53.80
2019-02-04T06:01:07.306Z,54.30
2019-02-04T06:02:09.439Z,56.50
2019-02-04T06:03:07.284Z,57.30
2019-02-04T06:04:07.274Z,53.70
2019-02-04T06:05:07.286Z,54.10
2019-02-04T06:06:07.250Z,54.40
2019-02-04T06:07:07.242Z,52.90
2019-02-04T06:08:07.230Z,53.80
2019-02-04T06:09:07.229Z,53.60
2019-02-04T06:10:07.235Z,50.70
2019-02-04T06:11:07.231Z,52.90
2019-02-04T06:12:07.216Z,56.20
2019-02-04T06:13:07.262Z,54.30
2019-02-04T06:14:07.234Z,52.50
2019-02-04T06:15:07.194Z,53.70
2019-02-04T06:16:07.189Z,52.70
2019-02-04T06:17:07.146Z,53.60
2019-02-04T06:18:07.129Z,52.70
2019-02-04T06:19:07.124Z,56.10
2019-02-04T06:20:07.232Z,52.70
2019-02-04T06:21:07.171Z,55.50
2019-02-04T06:22:07.163Z,55.80
2019-02-04T06:23:07.086Z,53.90
2019-02-04T06:24:07.063Z,57.20
2019-02-04T06:25:07.079Z,55.10
2019-02-04T06:26:07.046Z,56.10
2019-02-04T06:27:07.031Z,56.60
2019-02-04T06:28:07.037Z,55.70
2019-02-04T06:29:07.015Z,56.60
2019-02-04T06:30:07.036Z,57.20
2019-02-04T06:31:06.994Z,55.70
2019-02-04T06:32:07.013Z,59.00
2019-02-04T06:33:06.990Z,55.90
2019-02-04T06:34:06.980Z,55.10
2019-02-04T06:35:07.086Z,56.10
2019-02-04T06:36:06.942Z,55.50
2019-02-04T06:37:06.931Z,55.20
2019-02-04T06:38:06.919Z,55.60
2019-02-04T06:39:06.908Z,54.80
2019-02-04T06:40:06.900Z,53.90
2019-02-04T06:41:06.920Z,54.50
2019-02-04T06:42:06.874Z,56.00
2019-02-04T06:43:06.867Z,57.40
2019-02-04T06:44:06.854Z,56.40
2019-02-04T06:45:06.843Z,55.90
2019-02-04T06:46:06.867Z,54.20
2019-02-04T06:47:06.957Z,55.20
2019-02-04T06:48:06.811Z,55.50
2019-02-04T06:49:12.526Z,53.20
2019-02-04T06:50:07.791Z,55.10
2019-02-04T06:51:06.807Z,53.40
2019-02-04T06:52:06.775Z,55.90
2019-02-04T06:53:06.760Z,54.20
2019-02-04T06:54:06.815Z,53.10
2019-02-04T06:55:06.751Z,52.30
2019-02-04T06:56:06.755Z,50.90
2019-02-04T06:57:06.721Z,50.20
2019-02-04T06:58:06.708Z,54.30
2019-02-04T06:59:06.700Z,52.20
2019-02-04T07:00:06.687Z,51.40
2019-02-04T07:01:06.702Z,51.20
2019-02-04T07:02:06.667Z,49.70
2019-02-04T07:03:06.662Z,50.80
2019-02-04T07:04:06.644Z,53.40
2019-02-04T07:05:06.634Z,51.60
2019-02-04T07:06:06.647Z,51.40
2019-02-04T07:07:06.616Z,52.10
2019-02-04T07:08:06.621Z,51.70
2019-02-04T07:09:06.595Z,51.20
2019-02-04T07:10:06.593Z,51.90
2019-02-04T07:11:06.603Z,52.20
2019-02-04T07:12:06.559Z,50.80
2019-02-04T07:13:06.546Z,51.90
2019-02-04T07:14:06.539Z,50.20
2019-02-04T07:15:06.532Z,50.50
2019-02-04T07:16:06.539Z,49.50
2019-02-04T07:17:06.506Z,49.20
2019-02-04T07:18:06.497Z,48.40
2019-02-04T07:19:06.524Z,49.10
2019-02-04T07:20:06.478Z,49.30
2019-02-04T07:21:06.488Z,46.90
2019-02-04T07:22:06.453Z,48.10
2019-02-04T07:23:06.442Z,47.60
2019-02-04T07:24:06.432Z,45.70
2019-02-04T07:25:06.418Z,45.30
2019-02-04T07:26:06.435Z,44.80
2019-02-04T07:27:06.410Z,45.80
2019-02-04T07:28:06.388Z,46.00
2019-02-04T07:29:06.380Z,47.10
2019-02-04T07:30:06.367Z,45.70
2019-02-04T07:31:06.384Z,44.10
2019-02-04T07:32:06.351Z,45.30
2019-02-04T07:33:06.336Z,44.20
2019-02-04T07:34:06.324Z,43.20
2019-02-04T07:35:06.316Z,43.80
2019-02-04T07:36:06.336Z,43.90
2019-02-04T07:37:06.294Z,42.60
2019-02-04T07:38:06.287Z,43.20
2019-02-04T07:39:06.274Z,43.40
2019-02-04T07:40:06.266Z,42.70
2019-02-04T07:41:06.285Z,43.10
2019-02-04T07:42:06.246Z,41.10
2019-02-04T07:43:06.238Z,42.20
2019-02-04T07:44:06.231Z,42.60
2019-02-04T07:45:06.211Z,42.30
2019-02-04T07:46:06.230Z,42.10
2019-02-04T07:47:06.191Z,41.30
2019-02-04T07:48:06.179Z,42.00
2019-02-04T07:49:06.171Z,41.00
2019-02-04T07:50:06.160Z,41.10
2019-02-04T07:51:06.195Z,41.60
2019-02-04T07:52:06.139Z,41.40
2019-02-04T07:53:06.117Z,41.90
2019-02-04T07:54:06.120Z,40.60
2019-02-04T07:55:06.107Z,41.30
2019-02-04T07:56:06.095Z,41.10
2019-02-04T07:57:06.117Z,40.40
2019-02-04T07:58:06.075Z,39.80
2019-02-04T07:59:06.062Z,39.50
2019-02-04T08:00:06.060Z,39.20
2019-02-04T08:01:06.042Z,39.00
2019-02-04T08:02:06.062Z,38.00
2019-02-04T08:03:06.027Z,39.50
2019-02-04T08:04:06.017Z,38.40
2019-02-04T08:05:06.011Z,38.30
2019-02-04T08:06:06.003Z,36.40
2019-02-04T08:07:06.006Z,37.40
2019-02-04T08:08:05.974Z,37.60
2019-02-04T08:09:05.965Z,34.80
2019-02-04T08:10:05.950Z,38.20
2019-02-04T08:11:05.943Z,36.20
2019-02-04T08:12:05.955Z,36.80
2019-02-04T08:13:05.925Z,36.30
2019-02-04T08:14:05.915Z,36.30
2019-02-04T08:15:05.907Z,35.70
2019-02-04T08:16:05.899Z,35.40
2019-02-04T08:17:05.903Z,35.40
2019-02-04T08:18:05.868Z,36.90
2019-02-04T08:19:05.856Z,35.90
2019-02-04T08:20:05.845Z,35.80
2019-02-04T08:21:05.838Z,36.10
2019-02-04T08:22:05.855Z,35.50
2019-02-04T08:23:05.816Z,33.90
2019-02-04T08:24:05.806Z,35.30
2019-02-04T08:25:05.804Z,34.40
2019-02-04T08:26:05.785Z,34.60
2019-02-04T08:27:05.801Z,34.40
2019-02-04T08:28:05.762Z,33.60
2019-02-04T08:29:05.751Z,34.20
2019-02-04T08:30:05.750Z,33.10
2019-02-04T08:31:05.747Z,32.60
2019-02-04T08:32:05.751Z,31.00
2019-02-04T08:33:05.711Z,32.20
2019-02-04T08:34:05.700Z,31.50
2019-02-04T08:35:05.687Z,31.40
2019-02-04T08:36:05.679Z,31.30
2019-02-04T08:37:05.702Z,29.40
2019-02-04T08:38:05.663Z,31.00
2019-02-04T08:39:05.648Z,30.80
2019-02-04T08:40:05.635Z,30.30
2019-02-04T08:41:05.694Z,30.40
2019-02-04T08:42:05.665Z,29.80
2019-02-04T08:43:05.629Z,29.70
2019-02-04T08:44:05.592Z,29.80
2019-02-04T08:45:05.583Z,30.30
2019-02-04T08:46:05.571Z,30.00
2019-02-04T08:47:05.565Z,30.20
2019-02-04T08:48:05.578Z,28.30
2019-02-04T08:49:05.547Z,27.70
2019-02-04T08:50:05.531Z,29.00
2019-02-04T08:51:05.519Z,28.90
2019-02-04T08:52:05.508Z,29.90
2019-02-04T08:53:05.525Z,27.60
2019-02-04T08:54:05.488Z,27.50
2019-02-04T08:55:05.475Z,25.90
2019-02-04T08:56:05.469Z,26.20
2019-02-04T08:57:05.456Z,25.00
2019-02-04T08:58:05.476Z,26.10
2019-02-04T08:59:05.440Z,27.90
2019-02-04T09:00:05.424Z,26.20
2019-02-04T09:01:05.412Z,24.20
2019-02-04T09:02:05.403Z,25.00
2019-02-04T09:03:05.417Z,24.50
2019-02-04T09:04:05.379Z,25.00
2019-02-04T09:05:05.372Z,25.10
2019-02-04T09:06:05.361Z,24.60
2019-02-04T09:07:05.346Z,24.30
2019-02-04T09:08:05.364Z,24.40
2019-02-04T09:09:05.328Z,24.30
2019-02-04T09:10:05.318Z,23.90
2019-02-04T09:11:05.309Z,23.80
2019-02-04T09:12:05.296Z,24.50
2019-02-04T09:13:05.310Z,22.70
2019-02-04T09:14:05.281Z,22.40
2019-02-04T09:15:05.264Z,21.20
2019-02-04T09:16:05.255Z,23.00
2019-02-04T09:17:05.255Z,22.70
2019-02-04T09:18:05.281Z,21.90
2019-02-04T09:19:05.220Z,21.60
2019-02-04T09:20:10.186Z,22.00
2019-02-04T09:21:06.201Z,21.00
2019-02-04T09:22:05.198Z,21.10
2019-02-04T09:23:06.189Z,21.90
2019-02-04T09:24:05.192Z,21.30
2019-02-04T09:25:05.158Z,20.40
2019-02-04T09:26:05.157Z,21.10
2019-02-04T09:27:05.135Z,20.40
2019-02-04T09:28:05.127Z,19.90
2019-02-04T09:29:05.142Z,18.60
2019-02-04T09:30:05.102Z,18.70
2019-02-04T09:31:05.092Z,19.90
2019-02-04T09:32:05.085Z,19.30
2019-02-04T09:33:05.071Z,18.80
2019-02-04T09:34:05.083Z,20.40
2019-02-04T09:35:05.047Z,18.90
2019-02-04T09:36:05.043Z,19.50
2019-02-04T09:37:05.036Z,17.80
2019-02-04T09:38:05.027Z,19.30
2019-02-04T09:39:05.031Z,17.70
2019-02-04T09:40:04.999Z,18.20
2019-02-04T09:41:04.988Z,17.10
2019-02-04T09:42:04.977Z,17.10
2019-02-04T09:43:04.966Z,17.90
2019-02-04T09:44:04.986Z,17.10
2019-02-04T09:45:04.945Z,17.00
2019-02-04T09:46:04.943Z,16.90
2019-02-04T09:47:04.918Z,17.10
2019-02-04T09:48:04.913Z,16.70
2019-02-04T09:49:04.945Z,16.50
2019-02-04T09:50:04.886Z,17.40
2019-02-04T09:51:04.878Z,17.30
2019-02-04T09:52:04.869Z,16.80
2019-02-04T09:53:04.859Z,16.90
2019-02-04T09:54:04.853Z,16.20
2019-02-04T09:55:04.863Z,15.60
2019-02-04T09:56:04.828Z,16.00
2019-02-04T09:57:04.814Z,15.40
2019-02-04T09:58:04.805Z,16.20
2019-02-04T09:59:04.795Z,15.90
2019-02-04T10:00:04.820Z,15.60
2019-02-04T10:01:04.774Z,16.30
2019-02-04T10:02:04.763Z,16.00
2019-02-04T10:03:04.753Z,15.00
2019-02-04T10:04:04.741Z,15.10
2019-02-04T10:05:04.757Z,15.00
2019-02-04T10:06:04.719Z,14.10
2019-02-04T10:07:04.706Z,15.10
2019-02-04T10:08:04.700Z,14.30
2019-02-04T10:09:04.688Z,14.80
2019-02-04T10:10:04.700Z,14.20
2019-02-04T10:11:04.668Z,14.50
2019-02-04T10:12:04.660Z,15.00
2019-02-04T10:13:04.645Z,14.90
2019-02-04T10:14:04.636Z,15.00
2019-02-04T10:15:04.671Z,14.90
2019-02-04T10:16:04.648Z,14.10
2019-02-04T10:17:04.606Z,14.20
2019-02-04T10:18:04.620Z,14.00
2019-02-04T10:19:04.585Z,14.00
2019-02-04T10:20:04.600Z,15.00
2019-02-04T10:21:04.570Z,14.70
2019-02-04T10:22:04.658Z,13.80
2019-02-04T10:23:04.594Z,13.30
2019-02-04T10:24:04.660Z,13.70
2019-02-04T10:25:04.535Z,13.60
2019-02-04T10:26:04.543Z,14.60
2019-02-04T10:27:04.507Z,14.10
2019-02-04T10:28:04.521Z,13.50
2019-02-04T10:29:04.482Z,14.10
2019-02-04T10:30:04.528Z,13.60
2019-02-04T10:31:04.456Z,13.10
2019-02-04T10:32:04.461Z,12.80
2019-02-04T10:33:04.436Z,12.90
2019-02-04T10:34:04.442Z,13.20
2019-02-04T10:35:04.479Z,13.10
2019-02-04T10:36:04.416Z,12.50
2019-02-04T10:37:04.428Z,13.80
2019-02-04T10:38:04.398Z,13.20
2019-02-04T10:39:04.440Z,13.30
2019-02-04T10:40:04.431Z,13.20
2019-02-04T10:41:04.347Z,12.60
2019-02-04T10:42:04.361Z,12.80
2019-02-04T10:43:04.354Z,13.30
2019-02-04T10:44:04.336Z,13.50
2019-02-04T10:45:04.334Z,12.40
2019-02-04T10:46:04.947Z,12.30
2019-02-04T10:47:04.284Z,13.30
2019-02-04T10:48:04.278Z,13.40
2019-02-04T10:49:04.264Z,12.80
2019-02-04T10:50:04.310Z,13.20
2019-02-04T10:51:04.299Z,12.70
2019-02-04T10:52:04.279Z,12.90
2019-02-04T10:53:04.247Z,12.90
2019-02-04T10:54:04.206Z,12.60
2019-02-04T10:55:04.199Z,12.00
2019-02-04T10:56:04.352Z,12.70
2019-02-04T10:57:04.179Z,12.80
2019-02-04T10:58:04.205Z,13.00
2019-02-04T10:59:04.166Z,13.10
2019-02-04T11:00:04.186Z,13.20
2019-02-04T11:01:04.164Z,12.80
2019-02-04T11:02:04.131Z,12.60
2019-02-04T11:03:04.143Z,13.00
2019-02-04T11:04:04.107Z,12.40
2019-02-04T11:05:04.096Z,12.10
2019-02-04T11:06:04.112Z,11.70
2019-02-04T11:07:04.101Z,12.70
2019-02-04T11:08:04.066Z,12.30
2019-02-04T11:09:04.094Z,12.80
2019-02-04T11:10:04.083Z,12.20
2019-02-04T11:11:04.094Z,12.20
2019-02-04T11:12:04.022Z,11.60
2019-02-04T11:13:04.055Z,11.80
2019-02-04T11:14:04.043Z,12.20
2019-02-04T11:15:03.990Z,12.00
2019-02-04T11:16:04.026Z,12.10
2019-02-04T11:17:03.970Z,12.40
2019-02-04T11:18:03.991Z,12.00
2019-02-04T11:19:03.981Z,11.90
2019-02-04T11:20:03.936Z,12.20
2019-02-04T11:21:03.965Z,11.30
2019-02-04T11:22:03.949Z,11.80
2019-02-04T11:23:03.949Z,11.50
2019-02-04T11:24:03.951Z,11.90
2019-02-04T11:25:03.885Z,12.10
2019-02-04T11:26:03.952Z,10.90
2019-02-04T11:27:03.917Z,11.90
2019-02-04T11:28:03.851Z,11.30
2019-02-04T11:29:03.870Z,11.00
2019-02-04T11:30:03.834Z,11.40
2019-02-04T11:31:03.923Z,10.60
2019-02-04T11:32:03.811Z,11.40
2019-02-04T11:33:03.834Z,10.80
2019-02-04T11:34:03.838Z,10.60
2019-02-04T11:35:03.810Z,10.50
2019-02-04T11:36:03.771Z,11.00
2019-02-04T11:37:03.836Z,10.40
2019-02-04T11:38:03.917Z,11.20
2019-02-04T11:39:03.742Z,10.70
2019-02-04T11:40:03.731Z,10.80
2019-02-04T11:41:03.717Z,11.60
2019-02-04T11:42:03.731Z,10.50
2019-02-04T11:43:03.720Z,10.80
2019-02-04T11:44:03.680Z,11.40
2019-02-04T11:45:03.766Z,10.10
2019-02-04T11:46:03.662Z,10.40
2019-02-04T11:47:03.679Z,10.70
2019-02-04T11:48:03.648Z,10.80
2019-02-04T11:49:03.627Z,10.70
2019-02-04T11:50:03.621Z,10.60
2019-02-04T11:51:09.682Z,11.50
2019-02-04T11:52:04.626Z,11.30
2019-02-04T11:53:03.597Z,11.50
2019-02-04T11:54:03.576Z,11.10
2019-02-04T11:55:03.564Z,11.50
2019-02-04T11:56:03.552Z,11.70
2019-02-04T11:57:03.567Z,11.90
2019-02-04T11:58:03.541Z,11.70
2019-02-04T11:59:03.527Z,11.20
2019-02-04T12:00:03.518Z,11.30
2019-02-04T12:01:03.502Z,10.90
2019-02-04T12:02:03.515Z,11.00
2019-02-04T12:03:03.481Z,11.30
2019-02-04T12:04:03.474Z,10.70
2019-02-04T12:05:03.460Z,10.90
2019-02-04T12:06:03.447Z,10.50
2019-02-04T12:07:03.465Z,10.80
2019-02-04T12:08:03.427Z,11.10
2019-02-04T12:09:03.429Z,10.60
2019-02-04T12:10:03.407Z,10.50
2019-02-04T12:11:03.397Z,10.50
2019-02-04T12:12:03.412Z,10.20
2019-02-04T12:13:03.384Z,11.10
2019-02-04T12:14:03.369Z,10.40
2019-02-04T12:15:03.353Z,10.60
2019-02-04T12:16:03.345Z,10.20
2019-02-04T12:17:03.357Z,10.10
2019-02-04T12:18:03.332Z,10.20
2019-02-04T12:19:03.308Z,9.80
2019-02-04T12:20:03.299Z,10.20
2019-02-04T12:21:03.291Z,9.90
2019-02-04T12:22:03.312Z,10.50
2019-02-04T12:23:03.268Z,10.10
2019-02-04T12:24:03.260Z,9.90
2019-02-04T12:25:03.247Z,9.80
2019-02-04T12:26:03.238Z,9.50
2019-02-04T12:27:03.273Z,9.50
2019-02-04T12:28:03.211Z,9.50
2019-02-04T12:29:03.206Z,9.50
2019-02-04T12:30:03.193Z,9.40
2019-02-04T12:31:03.186Z,9.00
2019-02-04T12:32:03.167Z,9.60
2019-02-04T12:33:03.185Z,9.20
2019-02-04T12:34:03.148Z,9.30
2019-02-04T12:35:03.139Z,9.90
2019-02-04T12:36:03.131Z,8.70
2019-02-04T12:37:03.115Z,9.20
2019-02-04T12:38:03.131Z,10.10
2019-02-04T12:39:03.098Z,9.40
2019-02-04T12:40:03.084Z,9.10
2019-02-04T12:41:03.072Z,8.90
2019-02-04T12:42:03.067Z,9.40
2019-02-04T12:43:03.079Z,9.30
2019-02-04T12:44:03.042Z,9.50
2019-02-04T12:45:03.039Z,9.60
2019-02-04T12:46:03.019Z,8.50
2019-02-04T12:47:03.008Z,10.00
2019-02-04T12:48:03.023Z,8.70
2019-02-04T12:49:02.990Z,9.20
2019-02-04T12:50:02.980Z,9.60
2019-02-04T12:51:02.975Z,8.90
2019-02-04T12:52:02.961Z,8.90
2019-02-04T12:53:02.970Z,8.90
2019-02-04T12:54:02.936Z,8.60